Time,TemperatureF,DewpointF,PressureIn,WindDirection,WindDirectionDegrees,WindSpeedMPH,WindSpeedGustMPH,Humidity,HourlyPrecipIn,Conditions,Clouds,dailyrainin,SoftwareType,DateUTC
2013-10-23 00:23:00,48.0,45.0,29.84,West,276,0.0,4.0,90,0.00,,,0.00,,2013-10-23 05:23:00,
2013-10-23 00:52:00,48.0,45.0,29.84,WNW,284,0.0,2.0,90,0.00,,,0.00,,2013-10-23 05:52:00,
2013-10-23 01:22:00,47.0,44.0,29.85,WNW,300,0.0,7.0,90,0.00,,,0.00,,2013-10-23 06:22:00,
2013-10-23 01:42:00,47.0,43.0,29.85,NW,325,1.0,9.0,87,0.00,,,0.00,,2013-10-23 06:42:00,
2013-10-23 01:52:00,46.0,42.0,29.85,NNW,333,0.0,1.0,87,0.00,,,0.00,,2013-10-23 06:52:00,
2013-10-23 02:22:00,45.0,42.0,29.85,NW,306,0.0,2.0,90,0.00,,,0.00,,2013-10-23 07:22:00,
2013-10-23 02:52:00,45.0,41.0,29.85,NNW,329,2.0,12.0,85,0.00,,,0.00,,2013-10-23 07:52:00,
2013-10-23 03:22:00,45.0,40.0,29.86,NW,311,2.0,11.0,83,0.00,,,0.00,,2013-10-23 08:22:00,
2013-10-23 03:52:00,45.0,40.0,29.87,WNW,294,1.0,10.0,82,0.00,,,0.00,,2013-10-23 08:52:00,
2013-10-23 04:22:00,44.0,38.0,29.88,NW,313,6.0,18.0,78,0.00,,,0.00,,2013-10-23 09:22:00,
2013-10-23 04:53:00,43.0,35.0,29.89,NNW,337,6.0,25.0,73,0.00,,,0.00,,2013-10-23 09:53:00,
2013-10-23 05:23:00,42.0,35.0,29.92,NNW,347,3.0,14.0,75,0.00,,,0.00,,2013-10-23 10:23:00,
2013-10-23 05:53:00,41.0,34.0,29.94,NNW,336,6.0,17.0,75,0.00,,,0.00,,2013-10-23 10:53:00,
2013-10-23 06:22:00,41.0,34.0,29.95,NNW,332,3.0,10.0,77,0.00,,,0.00,,2013-10-23 11:22:00,
2013-10-23 06:52:00,41.0,34.0,29.96,NNW,345,3.0,12.0,76,0.00,,,0.00,,2013-10-23 11:52:00,
2013-10-23 07:22:00,41.0,34.0,29.98,NW,325,1.0,7.0,76,0.00,,,0.00,,2013-10-23 12:22:00,
2013-10-23 07:52:00,42.0,34.0,29.99,NNW,338,2.0,11.0,74,0.00,,,0.00,,2013-10-23 12:52:00,
2013-10-23 08:22:00,42.0,35.0,30.00,WNW,288,2.0,10.0,77,0.00,,,0.00,,2013-10-23 13:22:00,
2013-10-23 08:52:00,42.0,34.0,30.01,NNW,327,2.0,10.0,74,0.00,,,0.00,,2013-10-23 13:52:00,
2013-10-23 09:22:00,42.0,34.0,30.03,NNW,329,5.0,17.0,72,0.00,,,0.00,,2013-10-23 14:22:00,
2013-10-23 09:52:00,43.0,34.0,30.04,NNW,332,6.0,15.0,69,0.00,,,0.00,,2013-10-23 14:52:00,
2013-10-23 10:22:00,44.0,33.0,30.04,NW,317,2.0,13.0,66,0.00,,,0.00,,2013-10-23 15:22:00,
2013-10-23 10:43:00,45.0,34.0,30.04,NNW,340,3.0,13.0,64,0.00,,,0.00,,2013-10-23 15:43:00,
2013-10-23 10:53:00,45.0,34.0,30.06,WNW,293,3.0,12.0,64,0.00,,,0.00,,2013-10-23 15:53:00,
2013-10-23 11:23:00,46.0,34.0,30.06,NW,314,3.0,10.0,62,0.00,,,0.00,,2013-10-23 16:23:00,
2013-10-23 11:53:00,47.0,35.0,30.07,NNW,345,1.0,9.0,62,0.00,,,0.00,,2013-10-23 16:53:00,
2013-10-23 12:22:00,48.0,34.0,30.06,NNW,336,2.0,10.0,58,0.00,,,0.00,,2013-10-23 17:22:00,
2013-10-23 12:52:00,49.0,34.0,30.05,NW,322,2.0,14.0,57,0.00,,,0.00,,2013-10-23 17:52:00,
2013-10-23 13:22:00,50.0,33.0,30.04,NW,324,4.0,17.0,52,0.00,,,0.00,,2013-10-23 18:22:00,
2013-10-23 13:41:00,50.0,33.0,30.04,WNW,287,3.0,16.0,52,0.00,,,0.00,,2013-10-23 18:41:00,
2013-10-23 13:51:00,50.0,34.0,30.03,WNW,292,3.0,16.0,54,0.00,,,0.00,,2013-10-23 18:51:00,
2013-10-23 14:12:00,50.0,34.0,30.03,NNW,328,1.0,11.0,54,0.00,,,0.00,,2013-10-23 19:12:00,
2013-10-23 14:22:00,49.0,34.0,30.03,NNW,339,0.0,8.0,57,0.00,,,0.00,,2013-10-23 19:22:00,
2013-10-23 14:53:00,49.0,35.0,30.03,NNW,343,1.0,8.0,58,0.00,,,0.00,,2013-10-23 19:53:00,
2013-10-23 15:22:00,52.0,34.0,30.03,NNW,328,2.0,13.0,51,0.00,,,0.00,,2013-10-23 20:22:00,
2013-10-23 15:52:00,52.0,34.0,30.03,NW,309,0.0,3.0,50,0.00,,,0.00,,2013-10-23 20:52:00,
2013-10-23 16:22:00,52.0,34.0,30.03,NNW,327,1.0,9.0,50,0.00,,,0.00,,2013-10-23 21:22:00,
2013-10-23 16:54:00,52.0,34.0,30.03,WNW,286,0.0,6.0,50,0.00,,,0.00,,2013-10-23 21:54:00,
2013-10-23 17:04:00,52.0,34.0,30.03,WNW,286,0.0,6.0,50,0.00,,,0.00,,2013-10-23 22:04:00,
2013-10-23 17:24:00,52.0,33.0,30.03,NNW,335,0.0,3.0,49,0.00,,,0.00,,2013-10-23 22:24:00,
2013-10-23 17:54:00,50.0,34.0,30.04,WNW,286,0.0,1.0,54,0.00,,,0.00,,2013-10-23 22:54:00,
2013-10-23 18:22:00,49.0,38.0,30.03,North,0,0.0,0.0,65,0.00,,,0.00,,2013-10-23 23:22:00,
2013-10-23 18:52:00,46.0,38.0,30.03,North,0,0.0,0.0,73,0.00,,,0.00,,2013-10-23 23:52:00,
2013-10-23 19:12:00,44.0,38.0,30.04,North,0,0.0,0.0,78,0.00,,,0.00,,2013-10-24 00:12:00,
2013-10-23 19:22:00,43.0,38.0,30.04,North,0,0.0,0.0,82,0.00,,,0.00,,2013-10-24 00:22:00,
2013-10-23 19:52:00,41.0,37.0,30.04,North,0,0.0,0.0,84,0.00,,,0.00,,2013-10-24 00:52:00,
2013-10-23 20:21:00,40.0,37.0,30.05,North,0,0.0,0.0,88,0.00,,,0.00,,2013-10-24 01:21:00,
2013-10-23 20:52:00,40.0,37.0,30.04,North,0,0.0,0.0,89,0.00,,,0.00,,2013-10-24 01:52:00,
2013-10-23 21:12:00,40.0,37.0,30.04,North,0,0.0,0.0,90,0.00,,,0.00,,2013-10-24 02:12:00,
2013-10-23 21:22:00,40.0,37.0,30.04,North,0,0.0,0.0,90,0.00,,,0.00,,2013-10-24 02:22:00,
2013-10-23 22:22:00,42.0,39.0,30.06,North,0,0.0,0.0,90,0.00,,,0.00,,2013-10-24 03:22:00,
2013-10-23 22:54:00,43.0,40.0,30.06,North,0,0.0,0.0,90,0.00,,,0.00,,2013-10-24 03:54:00,
2013-10-23 23:14:00,43.0,40.0,30.06,North,0,0.0,0.0,89,0.00,,,0.00,,2013-10-24 04:14:00,
2013-10-23 23:24:00,43.0,40.0,30.06,North,0,0.0,0.0,89,0.00,,,0.00,,2013-10-24 04:24:00,
2013-10-23 23:54:00,44.0,41.0,30.06,North,0,0.0,0.0,89,0.00,,,0.00,,2013-10-24 04:54:00,